createdAt,value
2019-05-25T00:00:43.799Z,0.00
2019-05-25T00:01:43.811Z,0.00
2019-05-25T00:02:43.771Z,0.00
2019-05-25T00:03:43.768Z,0.00
2019-05-25T00:04:43.818Z,0.00
2019-05-25T00:05:43.731Z,0.00
2019-05-25T00:06:43.741Z,0.00
2019-05-25T00:07:43.731Z,0.00
2019-05-25T00:08:43.704Z,0.00
2019-05-25T00:09:43.707Z,0.00
2019-05-25T00:10:43.683Z,0.00
2019-05-25T00:11:43.665Z,0.00
2019-05-25T00:12:43.665Z,0.00
2019-05-25T00:13:43.667Z,0.00
2019-05-25T00:14:43.661Z,0.00
2019-05-25T00:15:43.620Z,0.00
2019-05-25T00:16:43.606Z,0.00
2019-05-25T00:17:43.597Z,0.00
2019-05-25T00:18:43.588Z,0.00
2019-05-25T00:19:43.590Z,0.00
2019-05-25T00:20:43.562Z,0.00
2019-05-25T00:21:43.566Z,0.00
2019-05-25T00:22:43.552Z,0.00
2019-05-25T00:23:43.535Z,0.00
2019-05-25T00:24:43.532Z,0.00
2019-05-25T00:25:43.507Z,0.00
2019-05-25T00:26:43.502Z,0.00
2019-05-25T00:27:43.519Z,0.00
2019-05-25T00:28:43.475Z,0.00
2019-05-25T00:29:43.493Z,0.00
2019-05-25T00:30:43.459Z,0.00
2019-05-25T00:31:43.448Z,0.00
2019-05-25T00:32:43.428Z,0.00
2019-05-25T00:33:43.429Z,0.00
2019-05-25T00:34:43.428Z,0.00
2019-05-25T00:35:43.411Z,0.00
2019-05-25T00:36:43.390Z,0.00
2019-05-25T00:37:43.381Z,0.00
2019-05-25T00:38:43.369Z,0.00
2019-05-25T00:39:43.354Z,0.00
2019-05-25T00:40:43.348Z,0.00
2019-05-25T00:41:43.347Z,0.00
2019-05-25T00:42:43.322Z,0.00
2019-05-25T00:43:43.361Z,0.00
2019-05-25T00:44:43.302Z,0.00
2019-05-25T00:45:43.288Z,0.00
2019-05-25T00:46:43.287Z,0.00
2019-05-25T00:47:43.268Z,0.00
2019-05-25T00:48:43.261Z,0.00
2019-05-25T00:49:43.255Z,0.00
2019-05-25T00:50:43.234Z,0.00
2019-05-25T00:51:43.232Z,0.00
2019-05-25T00:52:43.212Z,0.00
2019-05-25T00:53:43.224Z,0.00
2019-05-25T00:54:43.203Z,0.00
2019-05-25T00:55:43.175Z,0.00
2019-05-25T00:56:43.167Z,0.00
2019-05-25T00:57:43.158Z,0.00
2019-05-25T00:58:43.144Z,0.00
2019-05-25T00:59:43.144Z,0.00
2019-05-25T01:00:43.165Z,0.00
2019-05-25T01:01:43.122Z,0.00
2019-05-25T01:02:43.120Z,0.00
2019-05-25T01:03:43.090Z,0.00
2019-05-25T01:04:43.103Z,0.00
2019-05-25T01:05:43.067Z,0.00
2019-05-25T01:06:43.069Z,0.00
2019-05-25T01:07:43.044Z,0.00
2019-05-25T01:08:43.045Z,0.00
2019-05-25T01:09:43.036Z,0.00
2019-05-25T01:10:43.027Z,0.00
2019-05-25T01:11:42.995Z,0.00
2019-05-25T01:12:43.009Z,0.00
2019-05-25T01:13:42.975Z,0.00
2019-05-25T01:14:42.999Z,0.00
2019-05-25T01:15:42.955Z,0.00
2019-05-25T01:16:42.968Z,0.00
2019-05-25T01:17:42.939Z,0.00
2019-05-25T01:18:42.935Z,0.00
2019-05-25T01:19:42.906Z,0.00
2019-05-25T01:20:42.901Z,0.00
2019-05-25T01:21:42.921Z,0.00
2019-05-25T01:22:42.879Z,0.00
2019-05-25T01:23:42.887Z,0.00
2019-05-25T01:24:44.701Z,0.00
2019-05-25T01:25:42.839Z,0.00
2019-05-25T01:26:42.842Z,0.00
2019-05-25T01:27:42.828Z,0.00
2019-05-25T01:28:42.834Z,0.00
2019-05-25T01:29:42.829Z,0.00
2019-05-25T01:30:42.838Z,0.00
2019-05-25T01:31:42.804Z,0.00
2019-05-25T01:32:42.784Z,0.00
2019-05-25T01:33:42.748Z,0.00
2019-05-25T01:34:42.738Z,0.00
2019-05-25T01:35:42.754Z,0.00
2019-05-25T01:36:42.724Z,0.00
2019-05-25T01:37:42.708Z,0.00
2019-05-25T01:38:42.744Z,0.00
2019-05-25T01:39:42.683Z,0.00
2019-05-25T01:40:42.672Z,0.00
2019-05-25T01:41:42.663Z,0.00
2019-05-25T01:42:42.667Z,0.00
2019-05-25T01:43:42.673Z,0.00
2019-05-25T01:44:42.642Z,0.00
2019-05-25T01:45:42.614Z,0.00
2019-05-25T01:46:42.610Z,0.00
2019-05-25T01:47:42.597Z,0.00
2019-05-25T01:48:42.600Z,0.00
2019-05-25T01:49:42.587Z,0.00
2019-05-25T01:50:42.567Z,0.00
2019-05-25T01:51:42.608Z,0.00
2019-05-25T01:52:42.556Z,0.00
2019-05-25T01:53:42.526Z,0.00
2019-05-25T01:54:42.517Z,0.00
2019-05-25T01:55:42.522Z,0.00
2019-05-25T01:56:42.494Z,0.00
2019-05-25T01:57:42.484Z,0.00
2019-05-25T01:58:42.470Z,0.00
2019-05-25T01:59:42.501Z,0.00
2019-05-25T02:00:42.467Z,0.00
2019-05-25T02:01:42.439Z,0.00
2019-05-25T02:02:42.427Z,0.00
2019-05-25T02:03:42.449Z,0.00
2019-05-25T02:04:42.414Z,0.00
2019-05-25T02:05:42.401Z,0.00
2019-05-25T02:06:42.419Z,0.00
2019-05-25T02:07:42.373Z,0.00
2019-05-25T02:08:42.363Z,0.00
2019-05-25T02:09:42.361Z,0.00
2019-05-25T02:10:42.354Z,0.00
2019-05-25T02:11:42.345Z,0.00
2019-05-25T02:12:42.314Z,0.00
2019-05-25T02:13:42.304Z,0.00
2019-05-25T02:14:42.310Z,0.00
2019-05-25T02:15:42.283Z,0.00
2019-05-25T02:16:42.278Z,0.00
2019-05-25T02:17:42.311Z,0.00
2019-05-25T02:18:45.486Z,0.00
2019-05-25T02:19:42.235Z,0.00
2019-05-25T02:20:42.250Z,0.00
2019-05-25T02:21:42.215Z,0.00
2019-05-25T02:22:42.207Z,0.00
2019-05-25T02:23:42.247Z,0.00
2019-05-25T02:24:42.184Z,0.00
2019-05-25T02:25:42.170Z,0.00
2019-05-25T02:26:42.161Z,0.00
2019-05-25T02:27:42.149Z,0.00
2019-05-25T02:28:42.139Z,0.00
2019-05-25T02:29:42.157Z,0.00
2019-05-25T02:30:42.116Z,0.00
2019-05-25T02:31:42.100Z,0.00
2019-05-25T02:32:42.094Z,0.00
2019-05-25T02:33:42.082Z,0.00
2019-05-25T02:34:50.979Z,0.00
2019-05-25T02:35:42.055Z,0.00
2019-05-25T02:36:42.051Z,0.00
2019-05-25T02:37:42.044Z,0.00
2019-05-25T02:38:42.033Z,0.00
2019-05-25T02:39:42.035Z,0.00
2019-05-25T02:40:42.014Z,0.00
2019-05-25T02:41:41.989Z,0.00
2019-05-25T02:42:41.989Z,0.00
2019-05-25T02:43:41.968Z,0.00
2019-05-25T02:44:41.957Z,0.00
2019-05-25T02:45:41.958Z,0.00
2019-05-25T02:46:41.934Z,0.00
2019-05-25T02:47:41.930Z,0.00
2019-05-25T02:48:41.912Z,0.00
2019-05-25T02:49:41.905Z,0.00
2019-05-25T02:50:41.907Z,0.00
2019-05-25T02:51:41.882Z,0.00
2019-05-25T02:52:41.867Z,0.00
2019-05-25T02:53:41.857Z,0.00
2019-05-25T02:54:41.851Z,0.00
2019-05-25T02:55:41.833Z,0.00
2019-05-25T02:56:41.832Z,0.00
2019-05-25T02:57:41.817Z,0.00
2019-05-25T02:58:41.799Z,0.00
2019-05-25T02:59:41.789Z,0.00
2019-05-25T03:00:41.788Z,4.00
2019-05-25T03:01:41.793Z,0.00
2019-05-25T03:02:41.773Z,0.00
2019-05-25T03:03:41.748Z,4.00
2019-05-25T03:04:41.731Z,0.00
2019-05-25T03:05:41.746Z,0.00
2019-05-25T03:06:41.718Z,0.00
2019-05-25T03:07:41.726Z,4.00
2019-05-25T03:08:41.716Z,0.00
2019-05-25T03:09:41.680Z,4.00
2019-05-25T03:10:41.668Z,4.00
2019-05-25T03:11:41.659Z,4.00
2019-05-25T03:12:41.673Z,4.00
2019-05-25T03:13:41.676Z,4.00
2019-05-25T03:14:41.638Z,4.00
2019-05-25T03:15:41.608Z,8.00
2019-05-25T03:16:41.600Z,8.00
2019-05-25T03:17:41.587Z,8.00
2019-05-25T03:18:41.628Z,4.00
2019-05-25T03:19:41.566Z,4.00
2019-05-25T03:20:41.557Z,4.00
2019-05-25T03:21:41.543Z,8.00
2019-05-25T03:22:41.536Z,8.00
2019-05-25T03:23:41.522Z,8.00
2019-05-25T03:24:41.531Z,8.00
2019-05-25T03:25:49.528Z,8.00
2019-05-25T03:26:42.485Z,8.00
2019-05-25T03:27:41.480Z,8.00
2019-05-25T03:28:41.468Z,12.00
2019-05-25T03:29:41.479Z,12.00
2019-05-25T03:30:41.473Z,8.00
2019-05-25T03:31:41.449Z,8.00
2019-05-25T03:32:41.423Z,16.00
2019-05-25T03:33:41.412Z,16.00
2019-05-25T03:34:41.400Z,16.00
2019-05-25T03:35:41.413Z,20.00
2019-05-25T03:36:41.374Z,16.00
2019-05-25T03:37:41.392Z,16.00
2019-05-25T03:38:41.353Z,20.00
2019-05-25T03:39:41.345Z,20.00
2019-05-25T03:40:41.329Z,20.00
2019-05-25T03:41:41.340Z,20.00
2019-05-25T03:42:41.306Z,20.00
2019-05-25T03:43:41.310Z,20.00
2019-05-25T03:44:41.286Z,24.00
2019-05-25T03:45:41.279Z,28.00
2019-05-25T03:46:41.267Z,32.00
2019-05-25T03:47:41.271Z,32.00
2019-05-25T03:48:41.241Z,28.00
2019-05-25T03:49:41.243Z,24.00
2019-05-25T03:50:41.218Z,28.00
2019-05-25T03:51:41.207Z,32.00
2019-05-25T03:52:41.221Z,32.00
2019-05-25T03:53:41.189Z,28.00
2019-05-25T03:54:41.175Z,28.00
2019-05-25T03:55:41.177Z,24.00
2019-05-25T03:56:41.154Z,28.00
2019-05-25T03:57:41.142Z,32.00
2019-05-25T03:58:41.146Z,36.00
2019-05-25T03:59:41.124Z,36.00
2019-05-25T04:00:41.108Z,28.00
2019-05-25T04:01:41.116Z,24.00
2019-05-25T04:02:41.180Z,28.00
2019-05-25T04:03:41.087Z,32.00
2019-05-25T04:04:41.080Z,32.00
2019-05-25T04:05:41.053Z,32.00
2019-05-25T04:06:41.041Z,28.00
2019-05-25T04:07:41.043Z,28.00
2019-05-25T04:08:41.021Z,28.00
2019-05-25T04:09:41.010Z,32.00
2019-05-25T04:10:41.017Z,36.00
2019-05-25T04:11:40.991Z,36.00
2019-05-25T04:12:40.976Z,32.00
2019-05-25T04:13:41.008Z,32.00
2019-05-25T04:14:40.983Z,28.00
2019-05-25T04:15:40.942Z,32.00
2019-05-25T04:16:40.945Z,36.00
2019-05-25T04:17:40.927Z,36.00
2019-05-25T04:18:40.909Z,32.00
2019-05-25T04:19:40.903Z,32.00
2019-05-25T04:20:40.921Z,32.00
2019-05-25T04:21:40.893Z,40.00
2019-05-25T04:22:40.870Z,44.00
2019-05-25T04:23:40.855Z,44.00
2019-05-25T04:24:40.845Z,36.00
2019-05-25T04:25:40.833Z,36.00
2019-05-25T04:26:40.844Z,40.00
2019-05-25T04:27:40.831Z,44.00
2019-05-25T04:28:40.799Z,52.00
2019-05-25T04:29:40.790Z,52.00
2019-05-25T04:30:40.781Z,52.00
2019-05-25T04:31:40.770Z,44.00
2019-05-25T04:32:40.763Z,56.00
2019-05-25T04:33:40.776Z,68.00
2019-05-25T04:34:40.733Z,76.00
2019-05-25T04:35:40.729Z,72.00
2019-05-25T04:36:40.710Z,64.00
2019-05-25T04:37:40.703Z,64.00
2019-05-25T04:38:40.736Z,80.00
2019-05-25T04:39:40.701Z,100.00
2019-05-25T04:40:40.668Z,92.00
2019-05-25T04:41:40.657Z,80.00
2019-05-25T04:42:40.647Z,68.00
2019-05-25T04:43:40.636Z,88.00
2019-05-25T04:44:40.656Z,100.00
2019-05-25T04:45:40.628Z,112.00
2019-05-25T04:46:40.601Z,96.00
2019-05-25T04:47:40.596Z,88.00
2019-05-25T04:48:40.579Z,92.00
2019-05-25T04:49:40.570Z,116.00
2019-05-25T04:50:40.570Z,148.00
2019-05-25T04:51:40.556Z,152.00
2019-05-25T04:52:41.559Z,144.00
2019-05-25T04:53:40.525Z,124.00
2019-05-25T04:54:40.512Z,144.00
2019-05-25T04:55:40.502Z,160.00
2019-05-25T04:56:40.537Z,200.00
2019-05-25T04:57:40.480Z,208.00
2019-05-25T04:58:40.471Z,204.00
2019-05-25T04:59:40.458Z,184.00
2019-05-25T05:00:40.449Z,192.00
2019-05-25T05:01:40.437Z,224.00
2019-05-25T05:02:40.461Z,260.00
2019-05-25T05:03:40.417Z,276.00
2019-05-25T05:04:40.403Z,264.00
2019-05-25T05:05:40.391Z,260.00
2019-05-25T05:06:40.383Z,288.00
2019-05-25T05:07:40.369Z,296.00
2019-05-25T05:08:40.385Z,296.00
2019-05-25T05:09:40.344Z,308.00
2019-05-25T05:10:40.338Z,336.00
2019-05-25T05:11:40.324Z,324.00
2019-05-25T05:12:40.314Z,292.00
2019-05-25T05:13:40.304Z,260.00
2019-05-25T05:14:40.334Z,300.00
2019-05-25T05:15:40.283Z,308.00
2019-05-25T05:16:40.267Z,308.00
2019-05-25T05:17:40.262Z,300.00
2019-05-25T05:18:40.247Z,288.00
2019-05-25T05:19:40.238Z,272.00
2019-05-25T05:20:40.245Z,288.00
2019-05-25T05:21:40.217Z,312.00
2019-05-25T05:22:40.201Z,344.00
2019-05-25T05:23:40.191Z,332.00
2019-05-25T05:24:40.179Z,312.00
2019-05-25T05:25:40.188Z,248.00
2019-05-25T05:26:54.557Z,260.00
2019-05-25T05:27:41.162Z,280.00
2019-05-25T05:28:40.134Z,352.00
2019-05-25T05:29:40.121Z,324.00
2019-05-25T05:30:40.112Z,300.00
2019-05-25T05:31:40.113Z,292.00
2019-05-25T05:32:40.089Z,284.00
2019-05-25T05:33:40.098Z,272.00
2019-05-25T05:34:40.065Z,252.00
2019-05-25T05:35:40.061Z,296.00
2019-05-25T05:36:40.065Z,320.00
2019-05-25T05:37:40.037Z,320.00
2019-05-25T05:38:40.021Z,316.00
2019-05-25T05:39:40.017Z,304.00
2019-05-25T05:40:40.003Z,296.00
2019-05-25T05:41:39.992Z,304.00
2019-05-25T05:42:40.001Z,396.00
2019-05-25T05:43:39.978Z,420.00
2019-05-25T05:44:39.958Z,380.00
2019-05-25T05:45:39.977Z,376.00
2019-05-25T05:46:39.937Z,360.00
2019-05-25T05:47:39.933Z,336.00
2019-05-25T05:48:39.913Z,300.00
2019-05-25T05:49:39.919Z,316.00
2019-05-25T05:50:39.891Z,412.00
2019-05-25T05:51:39.877Z,352.00
2019-05-25T05:52:39.902Z,432.00
2019-05-25T05:53:39.856Z,460.00
2019-05-25T05:54:39.848Z,440.00
2019-05-25T05:55:39.847Z,416.00
2019-05-25T05:56:39.823Z,388.00
2019-05-25T05:57:39.819Z,344.00
2019-05-25T05:58:39.815Z,376.00
2019-05-25T05:59:39.801Z,436.00
2019-05-25T06:00:39.795Z,492.00
2019-05-25T06:01:39.766Z,460.00
2019-05-25T06:02:39.777Z,524.00
2019-05-25T06:03:39.742Z,532.00
2019-05-25T06:04:39.748Z,516.00
2019-05-25T06:05:39.741Z,520.00
2019-05-25T06:06:39.713Z,496.00
2019-05-25T06:07:39.710Z,452.00
2019-05-25T06:08:39.686Z,472.00
2019-05-25T06:09:39.680Z,528.00
2019-05-25T06:10:39.670Z,548.00
2019-05-25T06:11:39.678Z,576.00
2019-05-25T06:12:39.644Z,576.00
2019-05-25T06:13:39.637Z,580.00
2019-05-25T06:14:39.620Z,640.00
2019-05-25T06:15:39.615Z,552.00
2019-05-25T06:16:39.633Z,500.00
2019-05-25T06:17:39.607Z,452.00
2019-05-25T06:18:39.594Z,432.00
2019-05-25T06:19:39.572Z,448.00
2019-05-25T06:20:39.558Z,484.00
2019-05-25T06:21:39.548Z,496.00
2019-05-25T06:22:39.555Z,500.00
2019-05-25T06:23:39.521Z,496.00
2019-05-25T06:24:39.526Z,512.00
2019-05-25T06:25:39.505Z,532.00
2019-05-25T06:26:39.494Z,552.00
2019-05-25T06:27:39.480Z,560.00
2019-05-25T06:28:39.491Z,548.00
2019-05-25T06:29:39.456Z,564.00
2019-05-25T06:30:39.459Z,532.00
2019-05-25T06:31:39.439Z,536.00
2019-05-25T06:32:39.425Z,572.00
2019-05-25T06:33:39.416Z,584.00
2019-05-25T06:34:39.414Z,588.00
2019-05-25T06:35:39.392Z,608.00
2019-05-25T06:36:39.399Z,664.00
2019-05-25T06:37:39.368Z,664.00
2019-05-25T06:38:39.358Z,660.00
2019-05-25T06:39:39.345Z,656.00
2019-05-25T06:40:39.352Z,664.00
2019-05-25T06:41:39.329Z,700.00
2019-05-25T06:42:39.328Z,684.00
2019-05-25T06:43:39.299Z,728.00
2019-05-25T06:44:39.292Z,736.00
2019-05-25T06:45:39.284Z,784.00
2019-05-25T06:46:39.916Z,820.00
2019-05-25T06:47:39.257Z,880.00
2019-05-25T06:48:39.261Z,912.00
2019-05-25T06:49:39.234Z,884.00
2019-05-25T06:50:39.223Z,868.00
2019-05-25T06:51:39.220Z,860.00
2019-05-25T06:52:39.208Z,944.00
2019-05-25T06:53:39.189Z,1056.00
2019-05-25T06:54:39.194Z,1060.00
2019-05-25T06:55:39.169Z,1084.00
2019-05-25T06:56:39.162Z,1052.00
2019-05-25T06:57:43.873Z,1048.00
2019-05-25T06:58:39.163Z,992.00
2019-05-25T06:59:39.149Z,916.00
2019-05-25T07:00:39.127Z,760.00
2019-05-25T07:01:39.107Z,636.00
2019-05-25T07:02:39.100Z,552.00
2019-05-25T07:03:39.107Z,504.00
2019-05-25T07:04:39.073Z,504.00
2019-05-25T07:05:39.076Z,472.00
2019-05-25T07:06:39.048Z,444.00
2019-05-25T07:07:39.037Z,428.00
2019-05-25T07:08:39.026Z,420.00
2019-05-25T07:09:39.030Z,392.00
2019-05-25T07:10:39.004Z,444.00
2019-05-25T07:11:39.005Z,452.00
2019-05-25T07:12:38.998Z,468.00
2019-05-25T07:13:38.973Z,464.00
2019-05-25T07:14:38.963Z,400.00
2019-05-25T07:15:38.961Z,488.00
2019-05-25T07:16:38.938Z,456.00
2019-05-25T07:17:38.947Z,464.00
2019-05-25T07:18:38.915Z,472.00
2019-05-25T07:19:38.905Z,528.00
2019-05-25T07:20:38.896Z,564.00
2019-05-25T07:21:38.903Z,616.00
2019-05-25T07:22:38.870Z,800.00
2019-05-25T07:23:38.880Z,712.00
2019-05-25T07:24:38.851Z,756.00
2019-05-25T07:25:38.839Z,804.00
2019-05-25T07:26:38.833Z,812.00
2019-05-25T07:27:38.814Z,836.00
2019-05-25T07:28:38.829Z,924.00
2019-05-25T07:29:38.815Z,996.00
2019-05-25T07:30:38.781Z,1032.00
2019-05-25T07:31:38.775Z,1284.00
2019-05-25T07:32:38.766Z,1152.00
2019-05-25T07:33:38.748Z,1220.00
2019-05-25T07:34:38.761Z,1312.00
2019-05-25T07:35:38.735Z,1308.00
2019-05-25T07:36:38.718Z,1508.00
2019-05-25T07:37:38.711Z,1688.00
2019-05-25T07:38:38.694Z,1472.00
2019-05-25T07:39:38.684Z,1352.00
2019-05-25T07:40:38.713Z,1324.00
2019-05-25T07:41:38.660Z,1208.00
2019-05-25T07:42:38.651Z,1424.00
2019-05-25T07:43:38.656Z,1020.00
2019-05-25T07:44:38.629Z,956.00
2019-05-25T07:45:38.619Z,852.00
2019-05-25T07:46:38.667Z,824.00
2019-05-25T07:47:38.596Z,876.00
2019-05-25T07:48:38.583Z,896.00
2019-05-25T07:49:38.573Z,828.00
2019-05-25T07:50:38.575Z,780.00
2019-05-25T07:51:38.569Z,780.00
2019-05-25T07:52:38.558Z,916.00
2019-05-25T07:53:38.527Z,872.00
2019-05-25T07:54:38.519Z,980.00
2019-05-25T07:55:38.510Z,1156.00
2019-05-25T07:56:38.496Z,920.00
2019-05-25T07:57:38.502Z,1008.00
2019-05-25T07:58:38.493Z,972.00
2019-05-25T07:59:38.463Z,1220.00
2019-05-25T08:00:38.467Z,980.00
2019-05-25T08:01:38.442Z,984.00
2019-05-25T08:02:38.446Z,1008.00
2019-05-25T08:03:39.864Z,888.00
2019-05-25T08:04:38.446Z,836.00
2019-05-25T08:05:38.402Z,808.00
2019-05-25T08:06:38.387Z,820.00
2019-05-25T08:07:38.431Z,768.00
2019-05-25T08:08:38.375Z,876.00
2019-05-25T08:09:38.365Z,820.00
2019-05-25T08:10:38.342Z,868.00
2019-05-25T08:11:38.337Z,768.00
2019-05-25T08:12:38.332Z,728.00
2019-05-25T08:13:38.323Z,940.00
2019-05-25T08:14:38.332Z,744.00
2019-05-25T08:15:38.286Z,728.00
2019-05-25T08:16:38.277Z,724.00
2019-05-25T08:17:38.267Z,748.00
2019-05-25T08:18:38.262Z,760.00
2019-05-25T08:19:38.554Z,736.00
2019-05-25T08:20:38.233Z,724.00
2019-05-25T08:21:38.228Z,728.00
2019-05-25T08:22:38.234Z,744.00
2019-05-25T08:23:38.197Z,852.00
2019-05-25T08:24:38.191Z,864.00
2019-05-25T08:25:38.215Z,1116.00
2019-05-25T08:26:38.167Z,920.00
2019-05-25T08:27:38.152Z,904.00
2019-05-25T08:28:38.156Z,940.00
2019-05-25T08:29:38.138Z,1068.00
2019-05-25T08:30:38.141Z,1704.00
2019-05-25T08:31:38.129Z,1200.00
2019-05-25T08:32:38.101Z,1236.00
2019-05-25T08:33:38.091Z,1432.00
2019-05-25T08:34:38.078Z,1808.00
2019-05-25T08:35:47.047Z,1608.00
2019-05-25T08:36:38.054Z,1776.00
2019-05-25T08:37:38.059Z,1480.00
2019-05-25T08:38:38.045Z,1420.00
2019-05-25T08:39:38.021Z,1456.00
2019-05-25T08:40:38.019Z,1168.00
2019-05-25T08:41:38.010Z,1104.00
2019-05-25T08:42:38.000Z,1104.00
2019-05-25T08:43:37.978Z,1164.00
2019-05-25T08:44:37.969Z,1828.00
2019-05-25T08:45:37.960Z,1124.00
2019-05-25T08:46:37.957Z,1004.00
2019-05-25T08:47:37.946Z,992.00
2019-05-25T08:48:37.924Z,1040.00
2019-05-25T08:49:37.911Z,1028.00
2019-05-25T08:50:38.891Z,1068.00
2019-05-25T08:51:37.891Z,1012.00
2019-05-25T08:52:38.016Z,1048.00
2019-05-25T08:53:41.745Z,1200.00
2019-05-25T08:54:37.860Z,1160.00
2019-05-25T08:55:37.844Z,984.00
2019-05-25T08:56:37.853Z,920.00
2019-05-25T08:57:37.835Z,940.00
2019-05-25T08:58:48.061Z,972.00
2019-05-25T08:59:38.802Z,1032.00
2019-05-25T09:00:37.794Z,904.00
2019-05-25T09:01:37.795Z,996.00
2019-05-25T09:02:37.795Z,936.00
2019-05-25T09:03:37.756Z,944.00
2019-05-25T09:04:37.758Z,940.00
2019-05-25T09:05:37.738Z,1044.00
2019-05-25T09:06:37.724Z,1124.00
2019-05-25T09:07:37.714Z,1024.00
2019-05-25T09:08:37.716Z,1020.00
2019-05-25T09:09:37.691Z,1028.00
2019-05-25T09:10:37.685Z,1008.00
2019-05-25T09:11:37.671Z,1060.00
2019-05-25T09:12:37.658Z,1084.00
2019-05-25T09:13:37.667Z,1044.00
2019-05-25T09:14:37.636Z,1056.00
2019-05-25T09:15:37.623Z,1100.00
2019-05-25T09:16:37.638Z,1212.00
2019-05-25T09:17:37.604Z,3080.00
2019-05-25T09:18:37.596Z,1256.00
2019-05-25T09:19:37.596Z,1196.00
2019-05-25T09:20:37.570Z,1052.00
2019-05-25T09:21:37.563Z,1008.00
2019-05-25T09:22:37.565Z,992.00
2019-05-25T09:23:37.534Z,888.00
2019-05-25T09:24:37.538Z,972.00
2019-05-25T09:25:37.514Z,1000.00
2019-05-25T09:26:37.506Z,1132.00
2019-05-25T09:27:37.493Z,1472.00
2019-05-25T09:28:37.498Z,3256.00
2019-05-25T09:29:37.487Z,3512.00
2019-05-25T09:30:37.460Z,1984.00
2019-05-25T09:31:37.446Z,1604.00
2019-05-25T09:32:37.438Z,1380.00
2019-05-25T09:33:37.426Z,1356.00
2019-05-25T09:34:37.422Z,1420.00
2019-05-25T09:35:37.415Z,1372.00
2019-05-25T09:36:37.401Z,1416.00
2019-05-25T09:37:37.388Z,1316.00
2019-05-25T09:38:37.369Z,1304.00
2019-05-25T09:39:37.363Z,1412.00
2019-05-25T09:40:37.369Z,1388.00
2019-05-25T09:41:37.401Z,1488.00
2019-05-25T09:42:37.337Z,2824.00
2019-05-25T09:43:37.320Z,1764.00
2019-05-25T09:44:37.303Z,1516.00
2019-05-25T09:45:37.294Z,2028.00
2019-05-25T09:46:37.307Z,1552.00
2019-05-25T09:47:37.268Z,1388.00
2019-05-25T09:48:38.307Z,1416.00
2019-05-25T09:49:37.247Z,1436.00
2019-05-25T09:50:37.236Z,1668.00
2019-05-25T09:51:37.224Z,1696.00
2019-05-25T09:52:37.250Z,1612.00
2019-05-25T09:53:37.204Z,1452.00
2019-05-25T09:54:37.190Z,1236.00
2019-05-25T09:55:37.183Z,1172.00
2019-05-25T09:56:37.180Z,1096.00
2019-05-25T09:57:37.174Z,1156.00
2019-05-25T09:58:37.157Z,1004.00
2019-05-25T09:59:37.136Z,944.00
2019-05-25T10:00:40.169Z,996.00
2019-05-25T10:01:37.118Z,1012.00
2019-05-25T10:02:37.105Z,1072.00
2019-05-25T10:03:37.109Z,1232.00
2019-05-25T10:04:37.096Z,3192.00
2019-05-25T10:05:37.070Z,3388.00
2019-05-25T10:06:37.063Z,3084.00
2019-05-25T10:07:37.047Z,1440.00
2019-05-25T10:08:37.036Z,1392.00
2019-05-25T10:09:40.057Z,1236.00
2019-05-25T10:10:37.059Z,1260.00
2019-05-25T10:11:37.004Z,1268.00
2019-05-25T10:12:36.990Z,1264.00
2019-05-25T10:13:36.984Z,1404.00
2019-05-25T10:14:36.968Z,1528.00
2019-05-25T10:15:36.978Z,1152.00
2019-05-25T10:16:36.958Z,1168.00
2019-05-25T10:17:36.944Z,1124.00
2019-05-25T10:18:36.926Z,1120.00
2019-05-25T10:19:36.917Z,1152.00
2019-05-25T10:20:36.926Z,1168.00
2019-05-25T10:21:36.907Z,1212.00
2019-05-25T10:22:36.891Z,1208.00
2019-05-25T10:23:36.875Z,1148.00
2019-05-25T10:24:36.874Z,1084.00
2019-05-25T10:25:36.850Z,1072.00
2019-05-25T10:26:36.838Z,1084.00
2019-05-25T10:27:36.825Z,1088.00
2019-05-25T10:28:36.844Z,1024.00
2019-05-25T10:29:37.785Z,1044.00
2019-05-25T10:30:36.817Z,1016.00
2019-05-25T10:31:36.790Z,964.00
2019-05-25T10:32:36.792Z,952.00
2019-05-25T10:33:36.758Z,920.00
2019-05-25T10:34:36.748Z,936.00
2019-05-25T10:35:36.767Z,984.00
2019-05-25T10:36:36.731Z,1092.00
2019-05-25T10:37:36.734Z,1176.00
2019-05-25T10:38:36.706Z,1248.00
2019-05-25T10:39:36.690Z,1264.00
2019-05-25T10:40:36.681Z,1360.00
2019-05-25T10:41:36.694Z,1348.00
2019-05-25T10:42:36.690Z,1300.00
2019-05-25T10:43:36.651Z,1272.00
2019-05-25T10:44:36.637Z,1316.00
2019-05-25T10:45:36.633Z,1300.00
2019-05-25T10:46:36.686Z,1252.00
2019-05-25T10:47:36.622Z,1248.00
2019-05-25T10:48:36.597Z,1240.00
2019-05-25T10:49:36.620Z,1196.00
2019-05-25T10:50:36.572Z,1176.00
2019-05-25T10:51:36.592Z,1152.00
2019-05-25T10:52:36.550Z,1120.00
2019-05-25T10:53:36.557Z,1104.00
2019-05-25T10:54:36.523Z,1100.00
2019-05-25T10:55:36.518Z,1236.00
2019-05-25T10:56:36.506Z,3052.00
2019-05-25T10:57:36.524Z,1688.00
2019-05-25T10:58:36.510Z,1620.00
2019-05-25T10:59:51.635Z,1936.00
2019-05-25T11:00:37.456Z,2000.00
2019-05-25T11:01:36.450Z,2224.00
2019-05-25T11:02:36.437Z,2288.00
2019-05-25T11:03:36.427Z,1628.00
2019-05-25T11:04:36.432Z,1404.00
2019-05-25T11:05:36.436Z,1476.00
2019-05-25T11:06:36.392Z,1360.00
2019-05-25T11:07:36.387Z,1312.00
2019-05-25T11:08:36.372Z,1276.00
2019-05-25T11:09:36.372Z,1228.00
2019-05-25T11:10:36.351Z,1052.00
2019-05-25T11:11:36.346Z,1024.00
2019-05-25T11:12:36.327Z,1116.00
2019-05-25T11:13:36.327Z,1148.00
2019-05-25T11:14:36.322Z,2892.00
2019-05-25T11:15:36.296Z,1568.00
2019-05-25T11:16:36.288Z,1544.00
2019-05-25T11:17:36.271Z,2160.00
2019-05-25T11:18:36.268Z,1564.00
2019-05-25T11:19:36.266Z,1332.00
2019-05-25T11:20:36.241Z,1296.00
2019-05-25T11:21:36.229Z,1228.00
2019-05-25T11:22:36.217Z,2116.00
2019-05-25T11:23:36.202Z,1216.00
2019-05-25T11:24:36.206Z,1192.00
2019-05-25T11:25:36.202Z,1292.00
2019-05-25T11:26:36.174Z,1316.00
2019-05-25T11:27:36.159Z,1268.00
2019-05-25T11:28:36.150Z,1224.00
2019-05-25T11:29:36.138Z,1192.00
2019-05-25T11:30:36.131Z,1100.00
2019-05-25T11:31:36.191Z,932.00
2019-05-25T11:32:36.104Z,956.00
2019-05-25T11:33:36.564Z,1040.00
2019-05-25T11:34:36.082Z,1260.00
2019-05-25T11:35:36.071Z,1460.00
2019-05-25T11:36:36.078Z,1352.00
2019-05-25T11:37:36.048Z,1260.00
2019-05-25T11:38:36.042Z,1268.00
2019-05-25T11:39:36.029Z,1232.00
2019-05-25T11:40:36.019Z,1868.00
2019-05-25T11:41:36.016Z,1568.00
2019-05-25T11:42:36.047Z,1416.00
2019-05-25T11:43:36.051Z,1476.00
2019-05-25T11:44:35.975Z,1504.00
2019-05-25T11:45:35.969Z,2536.00
2019-05-25T11:46:35.949Z,2112.00
2019-05-25T11:47:35.941Z,1648.00
2019-05-25T11:48:35.958Z,1436.00
2019-05-25T11:49:35.949Z,1388.00
2019-05-25T11:50:35.906Z,2144.00
2019-05-25T11:51:35.937Z,3164.00
2019-05-25T11:52:35.886Z,1436.00
2019-05-25T11:53:35.887Z,1352.00
2019-05-25T11:54:35.872Z,1296.00
2019-05-25T11:55:35.858Z,1276.00
2019-05-25T11:56:35.857Z,2732.00
2019-05-25T11:57:35.828Z,2720.00
2019-05-25T11:58:46.903Z,2612.00
2019-05-25T11:59:36.808Z,2688.00
2019-05-25T12:00:35.793Z,1336.00
2019-05-25T12:01:35.803Z,1272.00
2019-05-25T12:02:35.819Z,1112.00
2019-05-25T12:03:35.785Z,1092.00
2019-05-25T12:04:35.768Z,1104.00
2019-05-25T12:05:35.739Z,3236.00
2019-05-25T12:06:35.732Z,1428.00
2019-05-25T12:07:35.719Z,2988.00
2019-05-25T12:08:35.714Z,2788.00
2019-05-25T12:09:35.710Z,2600.00
2019-05-25T12:10:35.686Z,2576.00
2019-05-25T12:11:35.677Z,2624.00
2019-05-25T12:12:35.670Z,2548.00
2019-05-25T12:13:35.653Z,2576.00
2019-05-25T12:14:35.689Z,2568.00
2019-05-25T12:15:35.633Z,1988.00
2019-05-25T12:16:35.619Z,2416.00
2019-05-25T12:17:35.609Z,1168.00
2019-05-25T12:18:35.604Z,1528.00
2019-05-25T12:19:35.592Z,2428.00
2019-05-25T12:20:35.596Z,2472.00
2019-05-25T12:21:35.563Z,2412.00
2019-05-25T12:22:35.572Z,2452.00
2019-05-25T12:23:35.554Z,2452.00
2019-05-25T12:24:35.536Z,2580.00
2019-05-25T12:25:35.520Z,2504.00
2019-05-25T12:26:35.521Z,2512.00
2019-05-25T12:27:35.501Z,2500.00
2019-05-25T12:28:35.511Z,2732.00
2019-05-25T12:29:35.481Z,2744.00
2019-05-25T12:30:40.793Z,2456.00
2019-05-25T12:31:36.454Z,1244.00
2019-05-25T12:32:35.462Z,1324.00
2019-05-25T12:33:35.434Z,2228.00
2019-05-25T12:34:35.445Z,1612.00
2019-05-25T12:35:35.412Z,1240.00
2019-05-25T12:36:35.398Z,1268.00